Time;durP1;ratioP1;P1;durP2;ratioP2;P2;SDS_P1;SDS_P2;PMS_P1;PMS_P2;Temp;Humidity;BMP_temperature;BMP_pressure;BME280_temperature;BME280_humidity;BME280_pressure;Samples;Min_cycle;Max_cycle;Signal;HPM_P1;HPM_P2
2021/10/04 00:01:28;;;;;;;1.50;1.30;;;13.60;99.90;;;;;;4854770;29;20479;-73
2021/10/04 00:03:55;;;;;;;1.67;1.30;;;13.60;99.90;;;;;;4855241;29;20543;-73
2021/10/04 00:06:22;;;;;;;2.37;1.37;;;13.60;99.90;;;;;;4853082;29;20468;-73
2021/10/04 00:08:48;;;;;;;2.10;1.20;;;13.60;99.90;;;;;;4853442;29;20480;-73
2021/10/04 00:11:16;;;;;;;1.57;1.30;;;13.60;99.90;;;;;;4868281;29;20478;-73
2021/10/04 00:13:44;;;;;;;1.40;1.23;;;13.60;99.90;;;;;;4854532;29;20495;-73
2021/10/04 00:16:11;;;;;;;1.20;1.00;;;13.60;99.90;;;;;;4854452;29;20468;-73
2021/10/04 00:18:37;;;;;;;1.50;1.30;;;13.60;99.90;;;;;;4854350;29;20487;-73
2021/10/04 00:21:04;;;;;;;1.17;1.00;;;13.60;99.90;;;;;;4854194;29;20476;-73
2021/10/04 00:23:31;;;;;;;1.60;1.50;;;13.60;99.90;;;;;;4853677;29;20840;-74
2021/10/04 00:25:58;;;;;;;1.43;1.33;;;13.60;99.90;;;;;;4854335;29;20472;-72
2021/10/04 00:28:24;;;;;;;2.07;1.20;;;13.60;99.90;;;;;;4854655;29;20473;-73
2021/10/04 00:30:52;;;;;;;2.03;1.43;;;13.60;99.90;;;;;;4854152;29;20476;-74
2021/10/04 00:33:19;;;;;;;1.87;1.30;;;13.50;99.90;;;;;;4853948;29;20468;-73
2021/10/04 00:35:47;;;;;;;1.47;1.37;;;13.50;99.90;;;;;;4941191;23;20503;-75
2021/10/04 00:38:14;;;;;;;2.03;1.07;;;13.50;99.90;;;;;;4876077;29;20475;-75
2021/10/04 00:40:40;;;;;;;1.60;1.50;;;13.50;99.90;;;;;;4875992;29;20471;-75
2021/10/04 00:43:07;;;;;;;1.40;1.23;;;13.50;99.90;;;;;;4875348;29;20466;-75
2021/10/04 00:45:35;;;;;;;1.20;1.10;;;13.50;99.90;;;;;;4876696;29;20487;-75
2021/10/04 00:48:03;;;;;;;1.60;1.50;;;13.50;99.90;;;;;;4876358;29;20478;-75
2021/10/04 00:50:30;;;;;;;2.17;1.30;;;13.50;99.90;;;;;;4876717;29;20470;-75
2021/10/04 00:52:57;;;;;;;1.30;1.10;;;13.50;99.90;;;;;;4875889;29;20471;-75
2021/10/04 00:55:24;;;;;;;2.87;1.40;;;13.40;99.90;;;;;;4876361;29;20536;-75
2021/10/04 00:57:51;;;;;;;1.60;1.30;;;13.40;99.90;;;;;;4876606;29;20971;-75
2021/10/04 01:00:25;;;;;;;1.43;1.20;;;13.40;99.90;;;;;;4876593;29;20467;-75
2021/10/04 01:02:52;;;;;;;1.17;1.00;;;13.40;99.90;;;;;;4875838;29;20471;-75
2021/10/04 01:05:21;;;;;;;1.43;1.30;;;13.40;99.90;;;;;;4876419;29;20491;-75
2021/10/04 01:07:47;;;;;;;1.50;1.30;;;13.40;99.90;;;;;;4876575;29;20952;-75
2021/10/04 01:10:15;;;;;;;1.50;1.40;;;13.40;99.90;;;;;;4876347;29;20463;-75
2021/10/04 01:12:44;;;;;;;1.57;1.30;;;13.40;99.90;;;;;;4876140;29;20848;-75
2021/10/04 01:15:16;;;;;;;1.90;1.73;;;13.40;99.90;;;;;;4878240;29;20510;-75
2021/10/04 01:17:43;;;;;;;1.80;1.50;;;13.40;99.90;;;;;;4880111;29;20490;-75
2021/10/04 01:20:15;;;;;;;1.43;1.30;;;13.40;99.90;;;;;;4879583;29;20467;-75
2021/10/04 01:22:42;;;;;;;1.10;1.00;;;13.30;99.90;;;;;;4879360;29;20467;-75
2021/10/04 01:25:10;;;;;;;1.63;1.50;;;13.30;99.90;;;;;;4879376;29;20494;-75
2021/10/04 01:27:37;;;;;;;1.10;1.00;;;13.30;99.90;;;;;;4879894;29;20473;-75
2021/10/04 01:30:05;;;;;;;1.73;1.30;;;13.30;99.90;;;;;;4879906;29;20471;-75
2021/10/04 01:32:32;;;;;;;1.47;1.10;;;13.30;99.90;;;;;;4879044;29;20472;-75
2021/10/04 01:34:59;;;;;;;1.80;1.10;;;13.30;99.90;;;;;;4879057;29;21034;-76
2021/10/04 01:37:27;;;;;;;1.63;1.10;;;13.20;99.90;;;;;;4879473;29;20482;-75
2021/10/04 01:39:54;;;;;;;1.10;1.00;;;13.20;99.90;;;;;;4879424;29;20471;-75
2021/10/04 01:42:21;;;;;;;2.10;1.10;;;13.30;99.90;;;;;;4878817;29;20474;-75
2021/10/04 01:44:49;;;;;;;1.27;1.10;;;13.20;99.90;;;;;;4879277;29;21007;-75
2021/10/04 01:47:16;;;;;;;1.30;1.20;;;13.20;99.90;;;;;;4879212;29;20472;-75
2021/10/04 01:49:44;;;;;;;1.73;1.63;;;13.20;99.90;;;;;;4879537;29;20846;-75
2021/10/04 01:52:11;;;;;;;1.20;1.07;;;13.20;99.90;;;;;;4878443;29;20574;-75
2021/10/04 01:54:40;;;;;;;1.30;1.10;;;13.20;99.90;;;;;;4879179;29;20527;-75
2021/10/04 01:57:07;;;;;;;1.87;1.00;;;13.10;99.90;;;;;;4879000;29;20490;-75
2021/10/04 01:59:34;;;;;;;1.50;1.07;;;13.10;99.90;;;;;;4879236;29;20475;-75
2021/10/04 02:02:01;;;;;;;1.13;1.03;;;13.00;99.90;;;;;;4878439;29;20472;-75
2021/10/04 02:04:28;;;;;;;1.50;1.00;;;13.00;99.90;;;;;;4878970;29;20488;-75
2021/10/04 02:06:54;;;;;;;1.60;1.20;;;13.00;99.90;;;;;;4878842;29;20468;-75
2021/10/04 02:09:22;;;;;;;3.30;1.10;;;13.00;99.90;;;;;;4878960;29;20474;-75
2021/10/04 02:11:50;;;;;;;1.20;1.10;;;13.00;99.90;;;;;;4878748;29;20471;-75
2021/10/04 02:14:17;;;;;;;1.77;1.10;;;13.00;99.90;;;;;;4878324;29;20491;-75
2021/10/04 02:16:43;;;;;;;1.07;0.97;;;13.00;99.90;;;;;;4878997;29;20471;-75
2021/10/04 02:19:12;;;;;;;1.23;1.13;;;12.90;99.90;;;;;;4878642;29;20482;-75
2021/10/04 02:21:39;;;;;;;1.63;1.07;;;12.90;99.90;;;;;;4878736;29;20482;-75
2021/10/04 02:24:06;;;;;;;1.60;1.17;;;12.90;99.90;;;;;;4878089;29;20494;-75
2021/10/04 02:26:33;;;;;;;1.83;1.00;;;12.90;99.90;;;;;;4877763;29;20499;-75
2021/10/04 02:29:01;;;;;;;1.20;0.90;;;12.90;99.90;;;;;;4878543;29;20476;-75
2021/10/04 02:31:28;;;;;;;1.87;1.60;;;12.80;99.90;;;;;;4878621;29;21170;-75
2021/10/04 02:33:54;;;;;;;1.00;0.90;;;12.80;99.90;;;;;;4877583;29;20487;-75
2021/10/04 02:36:23;;;;;;;1.30;1.20;;;12.80;99.90;;;;;;4878515;29;20467;-75
2021/10/04 02:38:51;;;;;;;1.13;1.00;;;12.70;99.90;;;;;;4878479;29;20467;-75
2021/10/04 02:41:18;;;;;;;1.70;1.20;;;12.70;99.90;;;;;;4878330;29;20471;-75
2021/10/04 02:43:45;;;;;;;1.17;1.08;;;12.60;99.90;;;;;;4877829;29;20499;-75
2021/10/04 02:46:13;;;;;;;1.57;1.30;;;12.60;99.90;;;;;;4878077;29;20203;-75
2021/10/04 02:48:40;;;;;;;1.20;0.97;;;12.60;99.90;;;;;;4878358;29;20472;-75
2021/10/04 02:51:07;;;;;;;1.33;1.10;;;12.50;99.90;;;;;;4878014;29;20475;-75
2021/10/04 02:53:33;;;;;;;1.98;1.02;;;12.50;99.90;;;;;;4877578;29;20619;-75
2021/10/04 02:56:00;;;;;;;1.30;1.20;;;12.50;99.90;;;;;;4877866;29;20227;-75
2021/10/04 02:58:27;;;;;;;1.13;1.03;;;12.50;99.90;;;;;;4878109;29;20482;-75
2021/10/04 03:00:54;;;;;;;1.60;1.33;;;12.50;99.90;;;;;;4878077;29;20480;-75
2021/10/04 03:03:22;;;;;;;1.30;1.20;;;12.50;99.90;;;;;;4877259;29;20475;-75
2021/10/04 03:05:49;;;;;;;1.40;1.10;;;12.50;99.90;;;;;;4877826;29;20873;-75
2021/10/04 03:08:16;;;;;;;1.73;1.33;;;12.40;99.90;;;;;;4877715;29;20479;-75
2021/10/04 03:10:43;;;;;;;1.17;1.00;;;12.40;99.90;;;;;;4878035;29;20476;-75
2021/10/04 03:13:09;;;;;;;1.30;1.20;;;12.40;99.90;;;;;;4877048;29;20467;-75
2021/10/04 03:15:36;;;;;;;1.17;1.08;;;12.40;99.90;;;;;;4877732;29;20258;-75
2021/10/04 03:18:04;;;;;;;1.10;0.90;;;12.40;99.90;;;;;;4877643;29;20212;-75
2021/10/04 03:20:34;;;;;;;1.42;1.30;;;12.40;99.90;;;;;;4877611;29;20211;-75
2021/10/04 03:23:01;;;;;;;1.40;1.30;;;12.40;99.90;;;;;;4876939;29;20234;-75
2021/10/04 03:25:28;;;;;;;2.03;1.23;;;12.40;99.90;;;;;;4877357;29;21004;-75
2021/10/04 03:27:55;;;;;;;1.47;1.00;;;12.30;99.90;;;;;;4877523;29;20474;-75
2021/10/04 03:30:22;;;;;;;1.43;1.10;;;12.40;99.90;;;;;;4877544;29;20478;-75
2021/10/04 03:32:49;;;;;;;1.50;1.27;;;12.40;99.90;;;;;;4876932;29;20475;-75
2021/10/04 03:35:17;;;;;;;1.40;1.30;;;12.40;99.90;;;;;;4876902;29;20841;-75
2021/10/04 03:37:45;;;;;;;2.57;1.30;;;12.40;99.90;;;;;;4877375;29;20471;-75
2021/10/04 03:40:13;;;;;;;3.20;1.37;;;12.30;99.90;;;;;;4877220;29;20460;-75
2021/10/04 03:42:40;;;;;;;2.80;1.67;;;12.40;99.90;;;;;;4877088;29;20957;-75
2021/10/04 03:45:08;;;;;;;1.47;1.23;;;12.40;99.90;;;;;;4877148;29;20479;-76
2021/10/04 03:47:36;;;;;;;1.00;0.90;;;12.40;99.90;;;;;;4877286;29;20474;-75
2021/10/04 03:50:05;;;;;;;1.60;1.23;;;12.40;99.90;;;;;;4877044;29;20468;-75
2021/10/04 03:52:31;;;;;;;1.38;1.15;;;12.40;99.90;;;;;;4876466;29;20474;-75
2021/10/04 03:55:00;;;;;;;1.17;1.07;;;12.30;99.90;;;;;;4876525;29;20223;-75
2021/10/04 03:57:27;;;;;;;1.88;1.20;;;12.30;99.90;;;;;;4877153;29;20478;-75
2021/10/04 03:59:53;;;;;;;1.50;1.30;;;12.30;99.90;;;;;;4877121;29;20218;-75
2021/10/04 04:02:20;;;;;;;1.97;1.20;;;12.30;99.90;;;;;;4876532;29;20890;-75
2021/10/04 04:04:47;;;;;;;1.33;1.23;;;12.30;99.90;;;;;;4876974;29;20488;-75
2021/10/04 04:07:13;;;;;;;3.10;1.83;;;12.30;99.90;;;;;;4876868;29;20214;-75
2021/10/04 04:09:40;;;;;;;1.50;1.30;;;12.30;99.90;;;;;;4877487;29;20207;-74
2021/10/04 04:12:08;;;;;;;1.25;1.15;;;12.20;99.90;;;;;;4876420;29;20215;-75
2021/10/04 04:14:35;;;;;;;1.23;1.13;;;12.20;99.90;;;;;;4876780;29;20230;-75
2021/10/04 04:17:02;;;;;;;1.23;1.13;;;12.20;99.90;;;;;;4876778;29;20467;-75
2021/10/04 04:19:29;;;;;;;1.80;1.30;;;12.20;99.90;;;;;;4876964;29;20297;-76
2021/10/04 04:21:56;;;;;;;2.15;1.40;;;12.20;99.90;;;;;;4876657;29;20589;-75
2021/10/04 04:24:22;;;;;;;3.23;1.20;;;12.20;99.90;;;;;;4876437;29;20239;-75
2021/10/04 04:26:50;;;;;;;1.30;1.20;;;12.20;99.90;;;;;;4877008;29;20546;-75
2021/10/04 04:29:18;;;;;;;2.05;1.27;;;12.20;99.90;;;;;;4876646;29;20474;-75
2021/10/04 04:31:45;;;;;;;3.00;1.20;;;12.20;99.90;;;;;;4876541;29;20207;-75
2021/10/04 04:34:11;;;;;;;2.27;1.40;;;12.20;99.90;;;;;;4875892;29;20507;-75
2021/10/04 04:36:39;;;;;;;1.92;1.50;;;12.20;99.90;;;;;;4876928;29;20503;-75
2021/10/04 04:39:05;;;;;;;1.40;1.30;;;12.20;99.90;;;;;;4876566;29;20210;-75
2021/10/04 04:41:32;;;;;;;4.00;1.40;;;12.20;99.90;;;;;;4876668;29;20476;-75
2021/10/04 04:43:59;;;;;;;1.53;1.13;;;12.20;99.90;;;;;;4875959;29;20495;-75
2021/10/04 04:46:27;;;;;;;1.67;1.50;;;12.20;99.90;;;;;;4876664;29;20464;-75
2021/10/04 04:48:54;;;;;;;1.40;1.30;;;12.20;99.90;;;;;;4876768;29;20478;-75
2021/10/04 04:51:21;;;;;;;1.40;1.20;;;12.10;99.90;;;;;;4880172;29;20211;-75
2021/10/04 04:53:48;;;;;;;2.38;1.40;;;12.10;99.90;;;;;;4879636;29;20495;-75
2021/10/04 04:56:15;;;;;;;1.40;1.30;;;12.10;99.90;;;;;;4879958;29;20238;-75
2021/10/04 04:58:42;;;;;;;2.33;1.60;;;12.10;99.90;;;;;;4880350;29;20467;-75
2021/10/04 05:01:09;;;;;;;2.60;1.37;;;12.10;99.90;;;;;;4879960;29;20207;-75
2021/10/04 05:03:37;;;;;;;1.50;1.30;;;12.10;99.90;;;;;;4879484;29;20466;-75
2021/10/04 05:06:03;;;;;;;1.70;1.27;;;12.10;99.90;;;;;;4879965;29;20960;-75
2021/10/04 05:08:30;;;;;;;1.23;1.10;;;12.10;99.90;;;;;;4880064;29;20502;-75
2021/10/04 05:10:57;;;;;;;1.47;1.20;;;12.10;99.90;;;;;;4879978;29;20493;-74
2021/10/04 05:13:24;;;;;;;3.03;1.50;;;12.10;99.90;;;;;;4879207;29;20470;-75
2021/10/04 05:15:50;;;;;;;1.50;1.30;;;12.10;99.90;;;;;;4880014;29;20871;-75
2021/10/04 05:18:17;;;;;;;1.92;1.58;;;12.10;99.90;;;;;;4879580;29;20467;-74
2021/10/04 05:20:45;;;;;;;2.20;1.50;;;12.10;99.90;;;;;;4879956;29;20593;-75
2021/10/04 05:23:12;;;;;;;1.90;1.60;;;12.10;99.90;;;;;;4878824;29;20530;-75
2021/10/04 05:25:39;;;;;;;1.70;1.40;;;12.10;99.90;;;;;;4879826;29;20227;-75
2021/10/04 05:28:06;;;;;;;2.23;1.73;;;12.20;99.90;;;;;;4879380;29;20471;-75
2021/10/04 05:30:33;;;;;;;4.03;1.90;;;12.20;99.90;;;;;;4879427;29;20479;-74
2021/10/04 05:33:00;;;;;;;2.50;1.70;;;12.20;99.90;;;;;;4879163;29;20463;-74
2021/10/04 05:35:27;;;;;;;1.53;1.40;;;12.20;99.90;;;;;;4879194;29;21014;-74
2021/10/04 05:37:55;;;;;;;1.93;1.53;;;12.20;99.90;;;;;;4879601;29;20479;-74
2021/10/04 05:40:22;;;;;;;1.92;1.50;;;12.20;99.90;;;;;;4879426;29;20468;-75
2021/10/04 05:42:49;;;;;;;1.40;1.30;;;12.20;99.90;;;;;;4879078;29;20215;-75
2021/10/04 05:45:16;;;;;;;1.40;1.30;;;12.20;99.90;;;;;;4878988;29;20234;-75
2021/10/04 05:47:44;;;;;;;2.80;1.90;;;12.20;99.90;;;;;;4879233;29;20967;-74
2021/10/04 05:50:12;;;;;;;1.30;1.20;;;12.20;99.90;;;;;;4878755;29;20199;-74
2021/10/04 05:52:39;;;;;;;2.33;1.30;;;12.20;99.90;;;;;;4878504;29;20463;-74
2021/10/04 05:55:09;;;;;;;1.70;1.30;;;12.20;99.90;;;;;;4878722;29;20494;-74
2021/10/04 05:57:36;;;;;;;1.10;1.00;;;12.20;99.90;;;;;;4871206;29;20476;-74
2021/10/04 06:00:03;;;;;;;2.67;1.80;;;12.20;99.90;;;;;;4870737;29;20831;-74
2021/10/04 06:02:30;;;;;;;1.60;1.50;;;12.20;99.90;;;;;;4867419;29;20463;-75
2021/10/04 06:04:56;;;;;;;1.40;1.30;;;12.20;99.90;;;;;;4865263;29;20488;-74
2021/10/04 06:07:23;;;;;;;1.47;1.37;;;12.10;99.90;;;;;;4859974;29;20469;-74
2021/10/04 06:09:50;;;;;;;5.33;1.70;;;12.10;99.90;;;;;;4860389;29;20469;-75
2021/10/04 06:12:24;;;;;;;1.70;1.40;;;12.20;99.90;;;;;;4859419;29;20859;-74
2021/10/04 06:14:51;;;;;;;2.00;1.13;;;12.30;99.90;;;;;;4858955;29;20494;-73
2021/10/04 06:17:18;;;;;;;1.60;1.20;;;12.20;99.90;;;;;;4857189;29;21027;-75
2021/10/04 06:19:44;;;;;;;3.50;1.80;;;12.20;99.90;;;;;;4857250;29;20472;-75
2021/10/04 06:22:11;;;;;;;1.27;1.17;;;12.20;99.90;;;;;;4858633;29;20469;-74
2021/10/04 06:24:38;;;;;;;1.63;1.53;;;12.20;99.90;;;;;;4859401;29;20499;-75
2021/10/04 06:27:05;;;;;;;1.60;1.50;;;12.30;99.90;;;;;;4860072;29;20468;-75
2021/10/04 06:29:33;;;;;;;2.05;1.40;;;12.30;99.90;;;;;;4860060;29;20475;-75
2021/10/04 06:31:59;;;;;;;2.03;1.40;;;12.30;99.90;;;;;;4859713;29;20230;-75
2021/10/04 06:42:57;;;;;;;1.80;1.60;;;12.30;99.90;;;;;;4895233;29;20503;-69
2021/10/04 06:45:25;;;;;;;1.57;1.27;;;12.30;99.90;;;;;;4896657;29;20487;-69
2021/10/04 06:47:51;;;;;;;1.60;1.20;;;12.30;99.90;;;;;;4897320;29;21450;-69
2021/10/04 06:50:18;;;;;;;3.00;1.57;;;12.30;99.90;;;;;;4896845;29;20471;-69
2021/10/04 06:52:45;;;;;;;2.30;1.60;;;12.30;99.90;;;;;;4896532;29;20886;-69
2021/10/04 06:55:11;;;;;;;1.63;1.40;;;12.30;99.90;;;;;;4896863;29;20490;-69
2021/10/04 06:57:39;;;;;;;2.60;1.30;;;12.30;99.90;;;;;;4896730;29;21053;-69
2021/10/04 07:00:09;;;;;;;1.60;1.50;;;12.30;99.90;;;;;;4889238;29;20471;-69
2021/10/04 07:02:38;;;;;;;2.93;1.80;;;12.40;99.90;;;;;;4868173;29;20469;-69
2021/10/04 07:05:06;;;;;;;4.53;2.07;;;12.40;99.90;;;;;;4873482;29;20902;-69
2021/10/04 07:07:32;;;;;;;1.90;1.60;;;12.40;99.90;;;;;;4877911;29;20460;-70
2021/10/04 07:09:59;;;;;;;3.93;2.13;;;12.40;99.90;;;;;;4883277;29;20502;-69
2021/10/04 07:12:26;;;;;;;4.03;2.33;;;12.40;99.90;;;;;;4879631;29;20467;-68
2021/10/04 07:14:52;;;;;;;4.13;2.40;;;12.40;99.90;;;;;;4890874;29;20501;-69
2021/10/04 07:17:19;;;;;;;2.97;2.67;;;12.50;99.90;;;;;;4896921;29;20505;-69
2021/10/04 07:19:48;;;;;;;5.13;3.30;;;12.50;99.90;;;;;;4896824;29;20478;-69
2021/10/04 07:22:15;;;;;;;3.30;3.00;;;12.50;99.90;;;;;;4897371;29;20466;-69
2021/10/04 07:24:42;;;;;;;3.13;2.80;;;12.50;99.90;;;;;;4898168;29;20858;-69
2021/10/04 07:27:08;;;;;;;3.30;3.00;;;12.50;99.90;;;;;;4899319;29;20884;-69
2021/10/04 07:29:35;;;;;;;10.73;3.87;;;12.60;99.90;;;;;;4898335;29;20474;-69
2021/10/04 07:32:02;;;;;;;7.80;4.13;;;12.50;99.90;;;;;;4899257;29;20824;-69
2021/10/04 07:34:29;;;;;;;3.97;3.20;;;12.50;99.90;;;;;;4898366;29;20246;-70
2021/10/04 07:36:57;;;;;;;6.17;3.40;;;12.50;99.90;;;;;;4898331;29;20490;-69
2021/10/04 07:39:24;;;;;;;3.47;2.73;;;12.50;99.90;;;;;;4898820;29;20476;-70
2021/10/04 07:41:51;;;;;;;6.63;3.10;;;12.60;99.90;;;;;;4898320;29;20482;-69
2021/10/04 07:44:20;;;;;;;3.30;3.00;;;12.50;99.90;;;;;;4897847;29;20508;-69
2021/10/04 07:46:47;;;;;;;4.00;3.27;;;12.50;99.90;;;;;;4897828;29;20469;-70
2021/10/04 07:49:14;;;;;;;4.40;2.50;;;12.50;99.90;;;;;;4898295;29;20958;-69
2021/10/04 07:51:41;;;;;;;3.03;2.37;;;12.50;99.90;;;;;;4898620;29;20470;-70
2021/10/04 07:54:09;;;;;;;2.80;2.23;;;12.50;99.90;;;;;;4897903;29;20495;-70
2021/10/04 07:56:38;;;;;;;2.40;2.20;;;12.50;99.90;;;;;;4897819;29;21010;-70
2021/10/04 07:59:05;;;;;;;3.73;2.30;;;12.50;99.90;;;;;;4898363;29;20533;-70
2021/10/04 08:01:32;;;;;;;3.13;2.50;;;12.50;99.90;;;;;;4898152;29;20978;-69
2021/10/04 08:03:58;;;;;;;2.10;1.90;;;12.50;99.90;;;;;;4897655;29;20495;-70
2021/10/04 08:06:26;;;;;;;4.00;2.20;;;12.40;99.90;;;;;;4897841;29;20462;-69
2021/10/04 08:08:53;;;;;;;3.00;2.40;;;12.40;99.90;;;;;;4879385;29;20467;-70
2021/10/04 08:11:22;;;;;;;3.13;2.50;;;12.40;99.90;;;;;;4879694;29;20554;-70
2021/10/04 08:13:50;;;;;;;2.67;2.47;;;12.40;99.90;;;;;;4878751;29;20495;-70
2021/10/04 08:16:17;;;;;;;2.60;2.40;;;12.40;99.90;;;;;;4879378;29;20483;-70
2021/10/04 08:18:44;;;;;;;2.70;2.50;;;12.50;99.90;;;;;;4879450;29;20473;-68
2021/10/04 08:21:11;;;;;;;3.10;2.80;;;12.50;99.90;;;;;;4879486;29;20562;-69
2021/10/04 08:23:38;;;;;;;2.63;2.33;;;12.50;99.90;;;;;;4878096;29;20475;-69
2021/10/04 08:26:06;;;;;;;2.93;2.67;;;12.60;99.90;;;;;;4879540;29;20540;-68
2021/10/04 08:28:34;;;;;;;4.33;2.70;;;12.60;99.90;;;;;;4869248;29;20467;-68
2021/10/04 08:31:01;;;;;;;2.63;2.42;;;12.60;99.90;;;;;;4881818;29;20478;-69
2021/10/04 08:33:28;;;;;;;2.50;2.13;;;12.60;99.90;;;;;;4877800;29;20199;-69
2021/10/04 08:35:55;;;;;;;2.43;1.90;;;12.50;99.90;;;;;;4875362;29;20464;-69
2021/10/04 08:38:22;;;;;;;1.93;1.63;;;12.50;99.90;;;;;;4880305;29;20464;-69
2021/10/04 08:40:49;;;;;;;1.80;1.70;;;12.50;99.90;;;;;;4880287;29;20879;-69
2021/10/04 08:43:16;;;;;;;2.13;1.43;;;12.50;99.90;;;;;;4879661;29;20474;-69
2021/10/04 08:45:52;;;;;;;1.87;1.60;;;12.50;99.90;;;;;;4880151;29;20487;-70
2021/10/04 08:48:19;;;;;;;2.33;1.60;;;12.60;99.90;;;;;;4880307;29;20519;-69
2021/10/04 08:50:55;;;;;;;1.53;1.43;;;12.60;99.90;;;;;;4880552;29;20982;-69
2021/10/04 08:53:23;;;;;;;2.07;1.50;;;12.60;99.90;;;;;;4881250;29;20474;-70
2021/10/04 08:55:51;;;;;;;1.50;1.40;;;12.60;99.90;;;;;;4882501;29;20507;-67
2021/10/04 08:58:18;;;;;;;1.53;1.43;;;12.50;99.90;;;;;;4883890;29;20471;-69
2021/10/04 09:00:47;;;;;;;2.33;1.70;;;12.60;99.90;;;;;;4883516;29;20471;-67
2021/10/04 09:03:15;;;;;;;1.40;1.30;;;12.60;99.90;;;;;;4878995;29;21204;-68
2021/10/04 09:05:45;;;;;;;1.83;1.43;;;12.60;99.90;;;;;;4876336;29;20517;-70
2021/10/04 09:08:15;;;;;;;1.60;1.50;;;12.60;99.90;;;;;;4882701;29;20479;-70
2021/10/04 09:10:49;;;;;;;2.20;1.27;;;12.60;99.90;;;;;;4882884;29;21274;-70
2021/10/04 09:13:17;;;;;;;1.30;1.13;;;12.60;99.90;;;;;;4883042;29;20471;-70
2021/10/04 09:15:48;;;;;;;3.07;1.37;;;12.60;99.90;;;;;;4882620;29;21082;-70
2021/10/04 09:18:21;;;;;;;3.27;1.30;;;12.60;99.90;;;;;;4883314;29;20487;-70
2021/10/04 09:20:57;;;;;;;1.40;1.30;;;12.60;99.90;;;;;;4882472;29;20475;-70
2021/10/04 09:23:48;;;;;;;1.00;0.90;;;12.60;99.90;;;;;;4881445;29;20534;-70
2021/10/04 09:26:34;;;;;;;1.00;0.90;;;12.60;99.90;;;;;;4881078;29;20478;-70
2021/10/04 09:29:04;;;;;;;0.93;0.83;;;12.60;99.90;;;;;;4883040;29;20463;-70
2021/10/04 09:31:34;;;;;;;1.10;1.00;;;12.60;99.90;;;;;;4883254;29;20463;-70
2021/10/04 09:34:10;;;;;;;1.63;1.20;;;12.70;99.90;;;;;;4881423;29;20495;-70
2021/10/04 09:36:38;;;;;;;3.03;1.20;;;12.60;99.90;;;;;;4881932;29;20498;-70
2021/10/04 09:39:22;;;;;;;1.23;0.97;;;12.70;99.90;;;;;;4882557;29;20471;-70
2021/10/04 09:42:10;;;;;;;1.00;0.90;;;12.70;99.90;;;;;;4881374;29;21339;-70
2021/10/04 09:45:00;;;;;;;2.33;1.00;;;12.70;99.90;;;;;;4881715;29;20907;-70
2021/10/04 09:47:30;;;;;;;1.70;0.97;;;12.80;99.90;;;;;;4876436;29;20464;-69
2021/10/04 09:50:01;;;;;;;1.40;1.30;;;12.80;99.90;;;;;;4881239;29;20482;-69
2021/10/04 09:52:41;;;;;;;1.50;1.20;;;12.80;99.90;;;;;;4881056;29;20464;-69
2021/10/04 09:55:17;;;;;;;1.53;1.13;;;12.80;99.90;;;;;;4886042;29;20485;-70
2021/10/04 09:57:54;;;;;;;1.37;1.10;;;12.80;99.90;;;;;;4899143;29;20553;-70
2021/10/04 10:00:21;;;;;;;1.60;1.10;;;12.90;99.90;;;;;;4900181;29;20471;-70
2021/10/04 10:02:54;;;;;;;1.13;1.00;;;12.90;99.90;;;;;;4899693;29;21072;-70
2021/10/04 10:05:22;;;;;;;1.30;1.00;;;12.90;99.90;;;;;;4900405;29;20498;-70
2021/10/04 10:07:50;;;;;;;1.10;0.90;;;12.90;99.90;;;;;;4899423;29;20498;-70
2021/10/04 10:10:17;;;;;;;1.40;0.90;;;12.90;99.90;;;;;;4865130;29;21065;-70
2021/10/04 10:12:43;;;;;;;1.00;0.80;;;12.90;99.90;;;;;;4862346;29;20849;-70
2021/10/04 10:15:15;;;;;;;1.20;0.80;;;12.90;99.90;;;;;;4861103;29;20489;-70
2021/10/04 10:17:46;;;;;;;0.90;0.80;;;12.90;99.90;;;;;;4860618;29;20496;-70
2021/10/04 10:20:21;;;;;;;0.90;0.70;;;13.00;99.90;;;;;;4861128;29;20472;-70
2021/10/04 10:22:50;;;;;;;1.13;1.00;;;13.00;99.90;;;;;;4859762;29;20476;-69
2021/10/04 10:25:35;;;;;;;1.07;0.80;;;13.10;99.90;;;;;;4861209;29;20495;-70
2021/10/04 10:28:03;;;;;;;1.43;0.90;;;13.10;99.90;;;;;;4860562;29;20944;-70
2021/10/04 10:30:31;;;;;;;0.90;0.70;;;13.10;99.90;;;;;;4860599;29;20468;-69
2021/10/04 10:32:59;;;;;;;1.17;0.90;;;13.20;99.90;;;;;;4859301;29;20476;-69
2021/10/04 10:35:50;;;;;;;0.90;0.80;;;13.20;99.90;;;;;;4860076;29;20499;-70
2021/10/04 10:38:18;;;;;;;1.17;0.90;;;13.30;99.90;;;;;;4859473;29;20504;-69
2021/10/04 10:41:16;;;;;;;1.10;0.83;;;13.30;99.90;;;;;;4859460;29;20468;-69
2021/10/04 10:44:09;;;;;;;0.80;0.63;;;13.30;99.90;;;;;;4858765;29;20498;-69
2021/10/04 10:47:03;;;;;;;1.37;0.90;;;13.40;99.90;;;;;;4859025;29;20902;-69
2021/10/04 10:50:01;;;;;;;1.10;0.80;;;13.40;99.90;;;;;;4860673;29;21231;-69
2021/10/04 10:52:32;;;;;;;1.13;1.00;;;13.40;99.90;;;;;;4900935;29;20471;-70
2021/10/04 10:55:01;;;;;;;0.97;0.80;;;13.40;99.90;;;;;;4900184;29;20482;-69
2021/10/04 10:58:05;;;;;;;1.30;1.00;;;13.50;99.90;;;;;;4899660;29;20494;-70
2021/10/04 11:00:34;;;;;;;1.17;0.97;;;13.50;99.90;;;;;;4899676;29;21160;-70
2021/10/04 11:03:03;;;;;;;1.10;1.00;;;13.40;99.90;;;;;;4898652;29;20466;-69
2021/10/04 11:05:55;;;;;;;3.07;0.93;;;13.50;99.90;;;;;;4898601;29;20489;-69
2021/10/04 11:08:46;;;;;;;1.30;1.03;;;13.50;99.90;;;;;;4898662;29;20510;-70
2021/10/04 11:11:16;;;;;;;2.60;1.07;;;13.60;99.90;;;;;;4897967;29;20467;-68
2021/10/04 11:13:55;;;;;;;1.60;0.90;;;13.60;99.90;;;;;;4896360;29;20458;-70
2021/10/04 11:16:36;;;;;;;1.07;0.93;;;13.60;99.90;;;;;;4897889;29;20466;-70
2021/10/04 11:19:05;;;;;;;0.90;0.80;;;13.70;99.90;;;;;;4897120;29;20505;-70
2021/10/04 11:21:33;;;;;;;1.30;1.10;;;13.70;99.90;;;;;;4896519;29;20462;-69
2021/10/04 11:24:05;;;;;;;1.10;1.00;;;13.70;99.90;;;;;;4896214;29;20490;-69
2021/10/04 11:26:35;;;;;;;1.00;0.90;;;13.70;99.90;;;;;;4896608;29;20550;-70
2021/10/04 11:29:04;;;;;;;1.23;1.00;;;13.70;99.90;;;;;;4897009;29;20462;-69
2021/10/04 11:31:33;;;;;;;1.30;1.20;;;13.60;99.90;;;;;;4896184;29;20466;-69
2021/10/04 11:34:01;;;;;;;1.30;0.90;;;13.50;99.90;;;;;;4895161;29;20525;-70
2021/10/04 11:36:31;;;;;;;1.67;1.33;;;13.50;99.90;;;;;;4867391;29;20461;-69
2021/10/04 11:39:02;;;;;;;1.53;0.80;;;13.50;99.90;;;;;;4859371;29;20491;-69
2021/10/04 11:41:30;;;;;;;1.27;0.90;;;13.50;99.90;;;;;;4859421;29;20481;-69
2021/10/04 11:44:00;;;;;;;1.70;0.80;;;13.50;99.90;;;;;;4857958;29;20857;-69
2021/10/04 11:46:29;;;;;;;1.20;0.93;;;13.50;99.90;;;;;;4859110;29;20469;-70
2021/10/04 11:49:03;;;;;;;0.90;0.80;;;13.50;99.90;;;;;;4858690;29;20890;-69
2021/10/04 11:51:33;;;;;;;1.00;0.90;;;13.50;99.90;;;;;;4858736;29;20815;-70
2021/10/04 11:54:02;;;;;;;1.00;0.80;;;13.50;99.90;;;;;;4857742;29;20500;-70
2021/10/04 11:56:29;;;;;;;1.40;1.20;;;13.50;99.90;;;;;;4858974;29;20496;-69
2021/10/04 11:58:58;;;;;;;1.20;0.90;;;13.50;99.90;;;;;;4858363;29;20499;-69
2021/10/04 12:01:29;;;;;;;1.10;0.90;;;13.50;99.90;;;;;;4859069;29;20468;-70
2021/10/04 12:04:05;;;;;;;1.00;0.90;;;13.50;99.90;;;;;;4858117;29;20574;-69
2021/10/04 12:06:33;;;;;;;1.20;0.90;;;13.60;99.90;;;;;;4858519;29;20472;-70
2021/10/04 12:09:03;;;;;;;1.00;0.90;;;13.60;99.90;;;;;;4857529;29;20476;-70
2021/10/04 12:11:30;;;;;;;1.50;1.00;;;13.60;99.90;;;;;;4858393;29;20468;-70
2021/10/04 12:13:57;;;;;;;2.33;1.00;;;13.60;99.90;;;;;;4857149;29;21004;-70
2021/10/04 12:16:29;;;;;;;1.77;1.20;;;13.60;99.90;;;;;;4858552;29;20459;-69
2021/10/04 12:18:58;;;;;;;1.83;1.30;;;13.60;99.90;;;;;;4863059;29;20586;-69
2021/10/04 12:21:32;;;;;;;1.10;0.90;;;13.60;99.90;;;;;;4881464;29;20475;-69
2021/10/04 12:24:12;;;;;;;1.40;0.90;;;13.60;99.90;;;;;;4893928;29;20558;-70
2021/10/04 12:26:59;;;;;;;1.30;1.00;;;13.70;99.90;;;;;;4876908;29;20499;-71
2021/10/04 12:29:41;;;;;;;1.13;1.03;;;13.70;99.90;;;;;;4877519;29;20467;-70
2021/10/04 12:32:27;;;;;;;3.23;1.50;;;13.80;99.90;;;;;;4876714;29;20476;-71
2021/10/04 12:35:15;;;;;;;1.70;1.13;;;13.80;99.90;;;;;;4878430;29;20578;-70
2021/10/04 12:37:45;;;;;;;1.43;1.20;;;13.80;99.90;;;;;;4878782;29;20495;-71
2021/10/04 12:40:40;;;;;;;1.40;1.20;;;13.80;99.90;;;;;;4880196;29;20460;-70
2021/10/04 12:43:08;;;;;;;1.20;1.00;;;13.80;99.90;;;;;;4876618;29;21014;-70
2021/10/04 12:45:36;;;;;;;1.83;1.00;;;13.80;99.90;;;;;;4878169;29;20497;-71
2021/10/04 12:48:13;;;;;;;2.70;1.30;;;13.90;99.90;;;;;;4878508;29;20472;-71
2021/10/04 12:50:42;;;;;;;1.03;0.93;;;13.90;99.90;;;;;;4878240;29;20469;-71
2021/10/04 12:53:18;;;;;;;1.60;1.20;;;13.80;99.90;;;;;;4875718;29;21010;-70
2021/10/04 12:55:56;;;;;;;1.30;1.20;;;13.90;99.90;;;;;;4876457;29;20628;-70
2021/10/04 12:58:24;;;;;;;1.20;1.00;;;13.90;99.90;;;;;;4877261;29;20495;-70
2021/10/04 13:00:52;;;;;;;1.30;1.20;;;13.90;99.90;;;;;;4876500;29;20471;-70
2021/10/04 13:03:19;;;;;;;1.70;1.27;;;13.90;99.90;;;;;;4876318;29;20830;-70
2021/10/04 13:05:50;;;;;;;1.50;1.10;;;13.90;99.90;;;;;;4873475;29;20499;-70
2021/10/04 13:08:17;;;;;;;1.37;1.23;;;13.90;99.90;;;;;;4875951;29;20470;-70